Time;durP1;ratioP1;P1;durP2;ratioP2;P2;SDS_P1;SDS_P2;PMS_P1;PMS_P2;Temp;Humidity;BMP_temperature;BMP_pressure;BME280_temperature;BME280_humidity;BME280_pressure;Samples;Min_cycle;Max_cycle;Signal;HPM_P1;HPM_P2
2023/07/18 00:00:38;;;;;;;10.98;2.47;;;14.40;99.90;;;;;;4989585;28;20125;-62
2023/07/18 00:03:04;;;;;;;5.22;2.20;;;14.40;99.90;;;;;;4989193;28;20030;-62
2023/07/18 00:05:31;;;;;;;4.90;2.10;;;14.40;99.90;;;;;;4956202;28;20497;-62
2023/07/18 00:07:57;;;;;;;5.20;2.45;;;14.40;99.90;;;;;;4990539;28;20489;-62
2023/07/18 00:10:23;;;;;;;7.07;2.67;;;14.40;99.90;;;;;;4973216;28;20050;-61
2023/07/18 00:12:49;;;;;;;7.82;2.92;;;14.30;99.90;;;;;;4959709;28;20141;-62
2023/07/18 00:15:16;;;;;;;5.50;2.13;;;14.30;99.90;;;;;;4973091;28;20477;-62
2023/07/18 00:17:43;;;;;;;4.38;2.72;;;14.30;99.90;;;;;;4989884;28;20386;-61
2023/07/18 00:20:17;;;;;;;8.40;2.55;;;14.30;99.90;;;;;;4972387;28;20093;-62
2023/07/18 00:22:48;;;;;;;3.90;1.88;;;14.30;99.90;;;;;;4989596;28;20062;-62
2023/07/18 00:25:16;;;;;;;4.72;2.70;;;14.30;99.90;;;;;;4969517;28;20047;-62
2023/07/18 00:27:51;;;;;;;6.43;2.58;;;14.30;99.90;;;;;;4970637;28;20074;-62
2023/07/18 00:30:17;;;;;;;8.23;3.15;;;14.30;99.90;;;;;;4970720;28;20043;-62
2023/07/18 00:32:44;;;;;;;6.03;2.42;;;14.30;99.90;;;;;;4969405;28;20066;-62
2023/07/18 00:35:11;;;;;;;7.25;2.30;;;14.30;99.90;;;;;;4970394;28;20073;-62
2023/07/18 00:37:38;;;;;;;6.88;2.17;;;14.30;99.90;;;;;;4970432;28;20442;-63
2023/07/18 00:40:10;;;;;;;8.27;2.47;;;14.30;99.90;;;;;;4968867;28;20051;-63
2023/07/18 00:42:40;;;;;;;6.88;2.50;;;14.30;99.90;;;;;;4964022;28;20160;-62
2023/07/18 00:45:07;;;;;;;5.85;2.50;;;14.30;99.90;;;;;;4953161;28;20403;-62
2023/07/18 00:47:40;;;;;;;8.60;2.40;;;14.20;99.90;;;;;;4970728;28;20051;-62
2023/07/18 00:50:08;;;;;;;9.15;2.50;;;14.20;99.90;;;;;;4968592;28;20106;-61
2023/07/18 00:52:41;;;;;;;6.95;2.50;;;14.20;99.90;;;;;;4968541;28;20043;-61
2023/07/18 00:55:10;;;;;;;2.85;2.03;;;14.20;99.90;;;;;;4969945;28;20111;-62
2023/07/18 00:57:40;;;;;;;12.03;2.90;;;14.10;99.90;;;;;;4951350;28;20114;-62
2023/07/18 01:00:13;;;;;;;4.72;2.33;;;14.10;99.90;;;;;;4963917;28;20047;-62
2023/07/18 01:02:43;;;;;;;8.07;2.63;;;14.10;99.90;;;;;;4968179;28;20117;-62
2023/07/18 01:05:11;;;;;;;9.27;2.50;;;14.10;99.90;;;;;;4969604;28;20086;-62
2023/07/18 01:07:37;;;;;;;10.32;2.55;;;14.00;99.90;;;;;;4969427;28;20437;-62
2023/07/18 01:10:23;;;;;;;5.95;2.13;;;14.00;99.90;;;;;;4964931;28;20051;-62
2023/07/18 01:13:00;;;;;;;4.07;1.95;;;14.00;99.90;;;;;;4969253;28;20053;-62
2023/07/18 01:15:30;;;;;;;7.82;2.25;;;14.00;99.90;;;;;;4970051;28;20047;-62
2023/07/18 01:17:56;;;;;;;5.30;1.75;;;14.00;99.90;;;;;;4969568;28;20050;-62
2023/07/18 01:20:28;;;;;;;6.38;2.58;;;13.90;99.90;;;;;;4969969;28;20090;-62
2023/07/18 01:22:56;;;;;;;9.93;2.20;;;13.90;99.90;;;;;;4968143;28;20750;-62
2023/07/18 01:25:22;;;;;;;7.22;2.00;;;13.90;99.90;;;;;;4982191;28;20871;-62
2023/07/18 01:27:50;;;;;;;5.40;2.40;;;13.90;99.90;;;;;;4961351;28;20058;-62
2023/07/18 01:30:20;;;;;;;8.55;2.33;;;13.90;99.90;;;;;;4989336;28;20128;-62
2023/07/18 01:32:49;;;;;;;7.00;2.35;;;13.90;99.90;;;;;;4988390;28;20058;-62
2023/07/18 01:35:17;;;;;;;5.82;2.25;;;13.90;99.90;;;;;;4989084;28;20042;-62
2023/07/18 01:37:46;;;;;;;4.05;2.55;;;13.90;99.90;;;;;;4988386;28;20078;-62
2023/07/18 01:40:15;;;;;;;8.18;2.60;;;13.90;99.90;;;;;;4989255;28;20121;-62
2023/07/18 01:42:42;;;;;;;5.82;2.47;;;13.90;99.90;;;;;;4988078;28;20567;-62
2023/07/18 01:45:09;;;;;;;8.60;2.58;;;13.90;99.90;;;;;;4988754;28;20069;-62
2023/07/18 01:47:37;;;;;;;5.85;2.00;;;13.80;99.90;;;;;;4989176;28;20049;-62
2023/07/18 01:50:04;;;;;;;6.35;2.80;;;13.80;99.90;;;;;;4988633;28;20054;-62
2023/07/18 01:52:32;;;;;;;10.10;2.58;;;13.80;99.90;;;;;;4987755;28;20038;-62
2023/07/18 01:55:00;;;;;;;5.15;2.20;;;13.70;99.90;;;;;;4988206;28;20093;-62
2023/07/18 01:57:31;;;;;;;6.78;2.22;;;13.70;99.90;;;;;;4988169;28;20504;-62
2023/07/18 02:00:00;;;;;;;8.65;2.47;;;13.70;99.90;;;;;;4955186;28;20046;-62
2023/07/18 02:02:29;;;;;;;5.72;2.33;;;13.70;99.90;;;;;;4988633;28;20050;-62
2023/07/18 02:04:58;;;;;;;9.05;2.20;;;13.60;99.90;;;;;;4988379;28;20047;-62
2023/07/18 02:07:26;;;;;;;8.43;2.22;;;13.60;99.90;;;;;;4988244;28;20038;-62
2023/07/18 02:09:52;;;;;;;7.68;2.20;;;13.60;99.90;;;;;;4988000;28;20112;-62
2023/07/18 02:12:19;;;;;;;6.53;2.33;;;13.60;99.90;;;;;;4988264;28;20046;-61
2023/07/18 02:14:45;;;;;;;6.53;2.35;;;13.60;99.90;;;;;;4988064;28;20065;-62
2023/07/18 02:17:11;;;;;;;7.40;2.63;;;13.60;99.90;;;;;;4988199;28;20485;-62
2023/07/18 02:19:36;;;;;;;5.03;1.85;;;13.60;99.90;;;;;;4988096;28;20524;-62
2023/07/18 02:22:03;;;;;;;4.80;1.85;;;13.50;99.90;;;;;;4988182;28;20530;-62
2023/07/18 02:24:29;;;;;;;8.25;2.97;;;13.50;99.90;;;;;;4987740;28;20055;-62
2023/07/18 02:26:55;;;;;;;7.63;2.47;;;13.50;99.90;;;;;;4970542;28;20058;-62
2023/07/18 02:29:21;;;;;;;7.65;2.00;;;13.50;99.90;;;;;;4987722;28;20046;-62
2023/07/18 02:31:47;;;;;;;5.75;2.10;;;13.60;99.90;;;;;;4969932;28;20073;-62
2023/07/18 02:34:13;;;;;;;5.88;2.08;;;13.60;99.90;;;;;;4988133;28;20046;-62
2023/07/18 02:36:39;;;;;;;4.68;1.73;;;13.60;99.90;;;;;;4987851;28;20555;-61
2023/07/18 02:39:07;;;;;;;5.20;1.92;;;13.50;99.90;;;;;;4987430;28;20054;-61
2023/07/18 02:41:34;;;;;;;7.22;2.63;;;13.50;99.90;;;;;;4969897;28;20444;-62
2023/07/18 02:43:59;;;;;;;9.48;2.28;;;13.40;99.90;;;;;;4970016;28;20050;-62
2023/07/18 02:46:25;;;;;;;8.85;2.50;;;13.40;99.90;;;;;;4987684;28;20069;-62
2023/07/18 02:48:51;;;;;;;11.18;2.70;;;13.40;99.90;;;;;;4987059;28;20042;-61
2023/07/18 02:51:16;;;;;;;7.63;2.72;;;13.40;99.90;;;;;;4987775;28;20038;-62
2023/07/18 02:53:43;;;;;;;12.38;2.75;;;13.40;99.90;;;;;;4969973;28;20081;-61
2023/07/18 02:56:09;;;;;;;7.88;2.55;;;13.40;99.90;;;;;;4987359;28;20042;-62
2023/07/18 02:58:35;;;;;;;13.00;2.75;;;13.30;99.90;;;;;;4969881;28;20501;-62
2023/07/18 03:01:01;;;;;;;10.20;2.55;;;13.40;99.90;;;;;;4987104;28;20053;-61
2023/07/18 03:03:27;;;;;;;8.93;2.83;;;13.30;99.90;;;;;;4986857;28;20053;-62
2023/07/18 03:05:53;;;;;;;10.18;2.30;;;13.30;99.90;;;;;;4987751;28;20401;-61
2023/07/18 03:08:20;;;;;;;7.22;2.70;;;13.30;99.90;;;;;;4986995;28;20042;-62
2023/07/18 03:10:47;;;;;;;9.73;2.47;;;13.30;99.90;;;;;;4987260;28;20045;-62
2023/07/18 03:13:13;;;;;;;9.10;2.50;;;13.30;99.90;;;;;;4987439;28;20494;-62
2023/07/18 03:15:39;;;;;;;6.28;2.25;;;13.40;99.90;;;;;;4987064;28;20057;-62
2023/07/18 03:18:06;;;;;;;10.82;2.60;;;13.30;99.90;;;;;;4987142;28;20050;-62
2023/07/18 03:20:33;;;;;;;10.50;2.63;;;13.30;99.90;;;;;;4966215;28;20054;-62
2023/07/18 03:22:58;;;;;;;10.75;2.58;;;13.30;99.90;;;;;;4936278;28;20050;-61
2023/07/18 03:25:25;;;;;;;9.95;2.58;;;13.40;99.90;;;;;;4987064;28;20055;-62
2023/07/18 03:27:51;;;;;;;9.10;2.45;;;13.30;99.90;;;;;;4987472;28;20046;-62
2023/07/18 03:30:18;;;;;;;4.78;2.35;;;13.40;99.90;;;;;;4986931;28;20117;-61
2023/07/18 03:32:43;;;;;;;8.32;2.67;;;13.30;99.90;;;;;;4969521;28;20061;-62
2023/07/18 03:35:11;;;;;;;4.88;2.30;;;13.30;99.90;;;;;;4986642;28;20042;-61
2023/07/18 03:37:37;;;;;;;8.00;2.70;;;13.30;99.90;;;;;;4969734;28;20042;-62
2023/07/18 03:40:06;;;;;;;8.43;2.80;;;13.30;99.90;;;;;;4936809;28;20041;-62
2023/07/18 03:42:32;;;;;;;8.37;3.33;;;13.30;99.90;;;;;;4987206;28;20489;-61
2023/07/18 03:44:58;;;;;;;8.73;2.63;;;13.30;99.90;;;;;;4969266;28;20046;-62
2023/07/18 03:47:23;;;;;;;7.43;2.33;;;13.30;99.90;;;;;;4969772;28;20401;-62
2023/07/18 03:49:50;;;;;;;9.10;2.25;;;13.30;99.90;;;;;;4968955;28;20038;-62
2023/07/18 03:52:16;;;;;;;7.57;2.28;;;13.30;99.90;;;;;;4986833;28;20409;-62
2023/07/18 03:54:43;;;;;;;6.03;2.30;;;13.30;99.90;;;;;;4969957;28;20434;-61
2023/07/18 03:57:09;;;;;;;6.65;2.33;;;13.30;99.90;;;;;;4973318;28;20042;-61
2023/07/18 03:59:34;;;;;;;7.72;2.20;;;13.30;99.90;;;;;;4986577;28;20101;-62
2023/07/18 04:02:00;;;;;;;6.18;2.22;;;13.30;99.90;;;;;;4986622;28;20620;-61
2023/07/18 04:04:27;;;;;;;8.50;2.58;;;13.30;99.90;;;;;;4969476;28;20038;-62
2023/07/18 04:06:53;;;;;;;10.63;2.55;;;13.40;99.90;;;;;;4987199;28;20141;-62
2023/07/18 04:09:19;;;;;;;9.80;2.20;;;13.50;99.90;;;;;;4986271;28;20460;-62
2023/07/18 04:11:46;;;;;;;11.18;3.08;;;13.50;99.90;;;;;;4986789;28;20137;-61
2023/07/18 04:14:12;;;;;;;8.95;2.72;;;13.50;99.90;;;;;;4987794;28;20085;-62
2023/07/18 04:16:38;;;;;;;8.15;2.75;;;13.50;99.90;;;;;;4973151;28;20069;-61
2023/07/18 04:19:04;;;;;;;14.35;2.65;;;13.60;99.90;;;;;;4956212;28;20042;-62
2023/07/18 04:21:31;;;;;;;9.88;2.25;;;13.60;99.90;;;;;;4975914;28;20053;-62
2023/07/18 04:23:56;;;;;;;10.80;2.53;;;13.60;99.90;;;;;;4990513;28;20046;-61
2023/07/18 04:26:22;;;;;;;6.55;1.95;;;13.60;99.90;;;;;;4989532;28;20046;-63
2023/07/18 04:28:48;;;;;;;5.60;2.47;;;13.70;99.90;;;;;;4990179;28;20043;-62
2023/07/18 04:31:14;;;;;;;12.25;2.88;;;13.70;99.90;;;;;;4989214;28;20058;-62
2023/07/18 04:33:40;;;;;;;11.63;2.00;;;13.70;99.90;;;;;;4972591;28;20078;-62
2023/07/18 04:36:07;;;;;;;9.30;2.22;;;13.80;99.90;;;;;;4989835;28;20038;-61
2023/07/18 04:38:34;;;;;;;14.77;2.78;;;13.80;99.90;;;;;;4990009;28;20095;-62
2023/07/18 04:41:01;;;;;;;9.10;2.28;;;13.80;99.90;;;;;;4989680;28;20128;-62
2023/07/18 04:43:27;;;;;;;12.68;2.67;;;13.90;99.90;;;;;;4990065;28;20472;-61
2023/07/18 04:45:53;;;;;;;9.50;2.60;;;13.90;99.90;;;;;;4989885;28;20175;-61
2023/07/18 04:48:19;;;;;;;8.93;2.75;;;14.00;99.90;;;;;;4989478;28;20073;-62
2023/07/18 04:50:56;;;;;;;8.82;2.50;;;14.00;99.90;;;;;;4972322;28;20084;-62
2023/07/18 04:53:22;;;;;;;8.60;2.25;;;14.10;99.90;;;;;;4989396;28;20069;-63
2023/07/18 04:55:50;;;;;;;8.05;2.30;;;14.10;99.90;;;;;;4989898;28;20490;-62
2023/07/18 04:58:17;;;;;;;16.58;2.67;;;14.20;99.90;;;;;;4989598;28;20053;-62
2023/07/18 05:00:43;;;;;;;13.23;2.42;;;14.20;99.90;;;;;;4989183;28;20056;-62
2023/07/18 05:03:08;;;;;;;8.95;2.15;;;14.30;99.90;;;;;;4985582;28;20038;-62
2023/07/18 05:05:34;;;;;;;14.20;2.60;;;14.40;99.90;;;;;;4989470;28;20053;-62
2023/07/18 05:08:01;;;;;;;14.48;2.83;;;14.40;99.90;;;;;;4989299;28;20085;-62
2023/07/18 05:10:28;;;;;;;9.18;2.97;;;14.40;99.90;;;;;;4988878;28;20060;-62
2023/07/18 05:12:54;;;;;;;9.43;1.85;;;14.50;99.90;;;;;;4979769;28;20134;-61
2023/07/18 05:15:20;;;;;;;9.77;3.35;;;14.60;99.90;;;;;;4971545;28;20050;-62
2023/07/18 05:17:46;;;;;;;8.50;2.60;;;14.60;99.90;;;;;;4989197;28;20089;-62
2023/07/18 05:20:13;;;;;;;8.73;2.67;;;14.70;99.90;;;;;;4968776;28;20125;-62
2023/07/18 05:22:40;;;;;;;7.70;2.47;;;14.70;99.90;;;;;;4987626;28;20053;-62
2023/07/18 05:25:07;;;;;;;11.02;2.53;;;14.70;99.90;;;;;;4983819;28;20057;-62
2023/07/18 05:27:33;;;;;;;12.02;2.60;;;14.80;99.90;;;;;;4969463;28;20502;-62
2023/07/18 05:29:59;;;;;;;8.68;2.38;;;14.80;99.90;;;;;;4969483;28;20118;-62
2023/07/18 05:32:26;;;;;;;4.90;2.78;;;14.90;99.90;;;;;;4964351;28;20035;-62
2023/07/18 05:34:51;;;;;;;10.07;2.75;;;15.00;99.90;;;;;;4963013;28;20046;-61
2023/07/18 05:37:18;;;;;;;10.02;2.80;;;15.00;99.90;;;;;;4967831;28;20038;-62
2023/07/18 05:39:43;;;;;;;20.23;3.88;;;15.10;99.90;;;;;;4962256;28;20053;-62
2023/07/18 05:42:09;;;;;;;17.70;3.03;;;15.10;99.90;;;;;;4965268;28;20046;-62
2023/07/18 05:44:35;;;;;;;12.57;2.45;;;15.20;99.90;;;;;;4961771;28;20078;-62
2023/07/18 05:47:01;;;;;;;6.35;2.22;;;15.30;99.90;;;;;;4967998;28;20060;-62
2023/07/18 05:49:27;;;;;;;9.02;2.75;;;15.30;99.90;;;;;;4969164;28;20049;-62
2023/07/18 05:51:53;;;;;;;11.25;3.00;;;15.40;99.90;;;;;;4966193;28;20054;-62
2023/07/18 05:54:19;;;;;;;15.90;2.60;;;15.50;99.90;;;;;;4968054;28;20069;-62
2023/07/18 05:56:46;;;;;;;12.40;2.85;;;15.50;99.90;;;;;;4958099;28;20825;-62
2023/07/18 05:59:11;;;;;;;11.45;2.85;;;15.60;99.90;;;;;;4963609;28;20462;-62
2023/07/18 06:01:37;;;;;;;6.13;2.30;;;15.70;99.90;;;;;;4958583;28;20058;-62
2023/07/18 06:04:03;;;;;;;16.55;3.28;;;15.70;99.90;;;;;;4966485;28;20057;-62
2023/07/18 06:06:30;;;;;;;11.43;3.03;;;15.80;99.90;;;;;;4965238;28;20051;-62
2023/07/18 06:08:56;;;;;;;8.70;2.78;;;15.80;99.90;;;;;;4965524;28;20508;-62
2023/07/18 06:11:22;;;;;;;11.90;3.00;;;15.80;99.90;;;;;;4981515;28;20500;-62
2023/07/18 06:13:49;;;;;;;11.48;2.72;;;15.80;99.90;;;;;;4967977;28;20054;-62
2023/07/18 06:16:15;;;;;;;18.77;3.53;;;15.80;99.90;;;;;;4961123;28;20043;-62
2023/07/18 06:18:41;;;;;;;11.18;3.20;;;15.80;99.90;;;;;;4967139;28;20413;-62
2023/07/18 06:21:07;;;;;;;11.98;2.67;;;15.80;99.90;;;;;;4965731;28;20042;-62
2023/07/18 06:23:33;;;;;;;7.13;2.60;;;15.90;99.90;;;;;;4965573;28;20039;-62
2023/07/18 06:25:59;;;;;;;9.50;2.63;;;15.90;99.90;;;;;;4966231;28;20328;-62
2023/07/18 06:28:25;;;;;;;14.25;2.97;;;16.00;99.90;;;;;;4966151;28;20125;-62
2023/07/18 06:30:54;;;;;;;10.80;2.80;;;16.00;99.90;;;;;;4966886;28;20157;-62
2023/07/18 06:33:20;;;;;;;;;;;16.00;99.90;;;;;;4965775;28;20049;-62
2023/07/18 06:35:53;;;;;;;9.93;2.85;;;16.10;99.90;;;;;;4967515;28;20344;-62
2023/07/18 06:38:20;;;;;;;14.77;2.85;;;16.10;99.90;;;;;;4967941;28;20102;-62
2023/07/18 06:40:46;;;;;;;15.95;2.75;;;16.20;99.90;;;;;;4967203;28;20565;-62
2023/07/18 06:43:16;;;;;;;11.85;2.92;;;16.20;99.90;;;;;;4968020;28;20127;-62
2023/07/18 06:45:48;;;;;;;;;;;16.30;99.90;;;;;;4968266;28;20061;-62
2023/07/18 06:48:14;;;;;;;14.40;3.30;;;16.40;99.90;;;;;;4967712;28;20489;-62
2023/07/18 06:50:47;;;;;;;18.33;4.22;;;16.40;99.90;;;;;;4966278;28;20058;-62
2023/07/18 06:53:18;;;;;;;21.55;3.70;;;16.50;99.90;;;;;;4979128;28;20046;-62
2023/07/18 06:55:46;;;;;;;19.45;4.15;;;16.60;99.90;;;;;;4967117;28;20494;-63
2023/07/18 06:58:12;;;;;;;13.93;3.90;;;16.60;99.90;;;;;;4968027;28;20051;-63
2023/07/18 07:00:39;;;;;;;21.20;4.65;;;16.70;99.90;;;;;;4967209;28;20035;-63
2023/07/18 07:03:05;;;;;;;15.43;4.13;;;16.80;99.90;;;;;;4966977;28;20065;-62
2023/07/18 07:05:38;;;;;;;10.23;3.30;;;16.90;99.90;;;;;;4965873;28;20126;-62
2023/07/18 07:08:10;;;;;;;13.30;3.85;;;16.90;99.90;;;;;;4968569;28;20038;-62
2023/07/18 07:10:40;;;;;;;15.25;4.10;;;17.00;99.90;;;;;;4962745;28;20043;-62
2023/07/18 07:13:07;;;;;;;16.08;3.85;;;17.10;99.90;;;;;;4968433;28;20160;-62
2023/07/18 07:15:33;;;;;;;18.60;4.45;;;17.20;99.90;;;;;;4967435;28;20101;-62
2023/07/18 07:17:59;;;;;;;11.57;3.17;;;17.30;99.90;;;;;;4968049;28;20046;-62
2023/07/18 07:20:26;;;;;;;18.55;4.22;;;17.50;99.90;;;;;;4967572;28;20489;-62
2023/07/18 07:22:53;;;;;;;15.10;3.15;;;17.70;99.90;;;;;;4967855;28;20050;-62
2023/07/18 07:25:19;;;;;;;14.90;3.88;;;17.70;99.90;;;;;;4980420;28;20051;-62
2023/07/18 07:27:46;;;;;;;17.98;4.47;;;17.80;99.90;;;;;;4968633;28;20118;-62
2023/07/18 07:30:17;;;;;;;16.55;4.63;;;17.80;99.90;;;;;;4987133;28;20051;-63
2023/07/18 07:32:43;;;;;;;16.45;3.95;;;17.90;99.90;;;;;;4980272;28;20074;-62
2023/07/18 07:35:10;;;;;;;13.95;4.63;;;18.00;99.90;;;;;;4969293;28;20087;-62
2023/07/18 07:37:36;;;;;;;13.85;3.75;;;18.00;99.90;;;;;;4986319;28;20493;-62
2023/07/18 07:40:06;;;;;;;19.15;4.60;;;18.00;99.90;;;;;;4985959;28;20042;-62
2023/07/18 07:42:32;;;;;;;13.35;4.57;;;18.30;99.90;;;;;;4986828;28;20117;-63
2023/07/18 07:44:58;;;;;;;18.65;4.45;;;18.80;99.90;;;;;;4968967;28;20126;-63
2023/07/18 07:47:24;;;;;;;12.20;4.75;;;19.20;99.90;;;;;;4969733;28;20053;-62
2023/07/18 07:49:49;;;;;;;21.10;4.85;;;19.60;99.90;;;;;;4988411;28;20398;-62
2023/07/18 07:52:15;;;;;;;10.95;4.22;;;19.80;99.90;;;;;;4977339;28;20045;-63
2023/07/18 07:54:41;;;;;;;14.07;3.53;;;20.20;99.90;;;;;;4990383;28;20042;-63
2023/07/18 07:57:06;;;;;;;12.20;4.25;;;20.40;99.90;;;;;;4988921;28;20038;-62
2023/07/18 07:59:32;;;;;;;14.90;3.75;;;20.80;99.90;;;;;;4990260;28;20043;-63
2023/07/18 08:01:58;;;;;;;11.52;2.83;;;21.10;99.90;;;;;;4989755;28;20046;-63
2023/07/18 08:04:24;;;;;;;17.00;3.42;;;21.20;97.30;;;;;;4973555;28;20389;-63
2023/07/18 08:06:52;;;;;;;10.25;2.72;;;21.30;93.70;;;;;;4978633;28;20133;-62
2023/07/18 08:09:18;;;;;;;14.60;3.78;;;21.30;93.40;;;;;;4965577;28;20110;-63
2023/07/18 08:11:43;;;;;;;15.70;3.50;;;21.20;91.40;;;;;;4969406;28;20045;-62
2023/07/18 08:14:09;;;;;;;11.65;2.92;;;21.10;83.50;;;;;;4972185;28;20406;-63
2023/07/18 08:16:35;;;;;;;11.27;2.85;;;20.90;88.90;;;;;;4987528;28;20125;-63
2023/07/18 08:19:00;;;;;;;6.82;1.92;;;20.70;83.30;;;;;;4953060;28;20664;-63
2023/07/18 08:21:26;;;;;;;8.73;1.90;;;20.60;82.70;;;;;;4984923;28;20042;-63
2023/07/18 08:23:52;;;;;;;10.93;2.30;;;20.50;76.40;;;;;;4980164;28;20042;-63
2023/07/18 08:26:18;;;;;;;8.70;1.77;;;20.30;80.20;;;;;;4981259;28;20125;-63
2023/07/18 08:28:43;;;;;;;7.60;1.98;;;20.40;83.80;;;;;;4957326;28;20501;-63
2023/07/18 08:31:09;;;;;;;7.30;1.90;;;20.70;85.30;;;;;;4985330;28;20058;-63
2023/07/18 08:33:35;;;;;;;9.55;2.38;;;21.00;86.60;;;;;;4988571;28;20070;-63
2023/07/18 08:36:01;;;;;;;6.72;2.25;;;21.20;81.50;;;;;;4987452;28;20551;-63
2023/07/18 08:38:26;;;;;;;6.43;2.25;;;21.30;77.40;;;;;;4990028;28;20038;-63
2023/07/18 08:40:52;;;;;;;6.45;2.00;;;21.50;61.20;;;;;;4987988;28;20069;-63
2023/07/18 08:43:18;;;;;;;8.88;2.13;;;21.70;58.50;;;;;;4957901;28;20378;-63
2023/07/18 08:45:45;;;;;;;5.30;1.30;;;22.00;60.90;;;;;;4985141;28;20122;-62
2023/07/18 08:48:13;;;;;;;5.00;2.40;;;22.40;51.50;;;;;;4989317;28;20112;-63
2023/07/18 08:50:40;;;;;;;10.27;1.83;;;22.70;32.90;;;;;;4988609;28;20129;-63
2023/07/18 08:53:06;;;;;;;6.35;2.05;;;23.00;11.90;;;;;;4955085;28;20042;-63
2023/07/18 08:55:32;;;;;;;7.90;1.50;;;23.20;1.00;;;;;;4972000;28;20041;-64
2023/07/18 08:57:59;;;;;;;4.53;1.17;;;23.30;2.20;;;;;;4981963;28;20054;-63
2023/07/18 09:00:25;;;;;;;7.07;1.73;;;23.30;1.00;;;;;;4987453;28;20128;-65
2023/07/18 09:02:51;;;;;;;4.38;1.17;;;23.40;1.00;;;;;;4941921;28;20082;-63
2023/07/18 09:05:32;;;;;;;8.85;1.60;;;23.30;1.00;;;;;;4970526;28;20074;-63
2023/07/18 09:08:00;;;;;;;7.95;1.40;;;23.30;1.00;;;;;;4987346;28;20061;-63
2023/07/18 09:10:26;;;;;;;5.88;1.02;;;23.40;1.00;;;;;;4989185;28;20050;-63
2023/07/18 09:12:52;;;;;;;8.02;2.13;;;23.30;1.00;;;;;;4989140;28;20069;-63
2023/07/18 09:15:21;;;;;;;3.95;1.05;;;23.20;1.00;;;;;;4969794;28;20092;-63
2023/07/18 09:17:55;;;;;;;4.82;0.93;;;23.10;1.00;;;;;;4988912;28;20118;-62
2023/07/18 09:20:22;;;;;;;2.88;0.85;;;23.00;1.00;;;;;;4971425;28;20403;-63
2023/07/18 09:22:48;;;;;;;4.18;0.70;;;23.00;1.00;;;;;;4987134;28;20110;-63
2023/07/18 09:25:15;;;;;;;2.38;0.90;;;23.00;1.00;;;;;;4987600;28;20121;-63
2023/07/18 09:27:41;;;;;;;3.70;0.90;;;22.90;1.00;;;;;;4980045;28;20490;-63
2023/07/18 09:30:08;;;;;;;7.03;1.33;;;22.70;1.00;;;;;;4983619;28;20093;-63
2023/07/18 09:32:34;;;;;;;1.60;0.80;;;22.40;1.00;;;;;;4966414;28;20042;-63
2023/07/18 09:35:00;;;;;;;1.33;0.60;;;22.40;1.00;;;;;;4984544;28;20050;-63
2023/07/18 09:37:27;;;;;;;1.65;0.82;;;22.50;1.00;;;;;;4988722;28;20050;-63
2023/07/18 09:39:54;;;;;;;1.50;0.60;;;22.50;1.00;;;;;;4986220;28;20054;-63
2023/07/18 09:42:21;;;;;;;3.92;1.00;;;22.50;1.00;;;;;;4985560;28;20045;-63
2023/07/18 09:44:50;;;;;;;2.75;0.90;;;22.50;1.00;;;;;;4976598;28;20103;-63
2023/07/18 09:47:17;;;;;;;2.47;0.60;;;22.60;1.00;;;;;;4981893;28;20129;-63
2023/07/18 09:49:43;;;;;;;2.88;1.90;;;22.70;1.00;;;;;;4980637;28;20193;-63
2023/07/18 09:52:10;;;;;;;7.13;0.90;;;23.00;1.00;;;;;;4984485;28;20046;-63
2023/07/18 09:54:38;;;;;;;6.05;1.00;;;23.10;1.00;;;;;;4958453;28;20046;-63
2023/07/18 09:57:05;;;;;;;1.92;0.77;;;23.20;1.00;;;;;;4987061;28;20042;-63
2023/07/18 09:59:35;;;;;;;2.05;0.80;;;23.30;1.00;;;;;;4988023;28;20042;-63
2023/07/18 10:02:05;;;;;;;3.17;0.93;;;23.30;1.00;;;;;;4985728;28;20045;-63
2023/07/18 10:04:34;;;;;;;2.60;0.70;;;23.20;1.00;;;;;;4985857;28;20049;-63
2023/07/18 10:07:02;;;;;;;3.63;0.80;;;23.20;1.00;;;;;;4955391;28;20045;-63
2023/07/18 10:09:29;;;;;;;2.95;0.85;;;23.10;1.00;;;;;;4988233;28;20074;-63
2023/07/18 10:11:58;;;;;;;3.85;0.93;;;23.00;1.00;;;;;;4970152;28;20449;-63
2023/07/18 10:14:42;;;;;;;3.83;1.00;;;22.90;1.00;;;;;;4968332;28;20554;-63
2023/07/18 10:17:07;;;;;;;2.95;0.90;;;22.80;1.00;;;;;;4981904;28;20110;-63
2023/07/18 10:19:51;;;;;;;2.80;0.88;;;22.70;1.00;;;;;;4970232;28;20046;-63
2023/07/18 10:22:33;;;;;;;4.80;1.10;;;22.50;1.00;;;;;;4970434;28;20054;-64
2023/07/18 10:25:04;;;;;;;4.50;1.02;;;22.30;1.00;;;;;;4959729;28;20063;-63
2023/07/18 10:27:43;;;;;;;3.70;1.20;;;22.10;1.00;;;;;;4968027;28;20047;-63
2023/07/18 10:30:15;;;;;;;2.55;1.42;;;21.90;1.00;;;;;;4968130;28;20417;-63
2023/07/18 10:32:43;;;;;;;6.97;1.48;;;21.80;1.00;;;;;;4968131;28;20058;-63
2023/07/18 10:35:13;;;;;;;3.92;1.30;;;21.90;1.00;;;;;;4967798;28;20050;-63
2023/07/18 10:37:44;;;;;;;5.88;0.90;;;22.20;1.00;;;;;;4968435;28;20452;-63
2023/07/18 10:40:10;;;;;;;2.42;1.00;;;22.50;1.00;;;;;;4967100;28;20106;-63
2023/07/18 10:42:36;;;;;;;6.38;1.40;;;22.80;1.00;;;;;;4960781;28;20049;-63
2023/07/18 10:45:06;;;;;;;3.60;1.10;;;23.10;1.00;;;;;;4966593;28;20103;-63
2023/07/18 10:47:37;;;;;;;2.75;0.95;;;23.30;1.00;;;;;;4967854;28;20047;-63
2023/07/18 10:50:04;;;;;;;4.95;1.27;;;23.50;1.00;;;;;;4964446;28;20091;-63
2023/07/18 10:52:32;;;;;;;5.93;1.40;;;23.60;1.00;;;;;;4967668;28;20432;-63
2023/07/18 10:54:59;;;;;;;3.33;1.20;;;23.50;1.00;;;;;;4944490;28;20046;-63
2023/07/18 10:57:30;;;;;;;3.67;1.00;;;23.30;1.00;;;;;;4966921;28;20047;-63
2023/07/18 10:59:58;;;;;;;5.97;1.48;;;23.20;1.00;;;;;;4959854;28;20390;-63
2023/07/18 11:02:25;;;;;;;4.07;1.30;;;23.10;1.00;;;;;;4961131;28;20411;-63
2023/07/18 11:04:52;;;;;;;4.43;1.23;;;22.90;1.00;;;;;;4954798;28;20122;-63
2023/07/18 11:07:18;;;;;;;8.55;1.60;;;22.90;1.00;;;;;;4957899;28;20101;-64
2023/07/18 11:09:44;;;;;;;6.90;0.98;;;22.90;1.00;;;;;;4953921;28;20046;-63
2023/07/18 11:12:18;;;;;;;5.30;1.20;;;23.10;1.00;;;;;;4951671;28;20275;-63
2023/07/18 11:14:44;;;;;;;4.05;1.23;;;23.20;1.00;;;;;;4959873;28;20081;-63
2023/07/18 11:17:14;;;;;;;2.55;0.93;;;23.20;1.00;;;;;;4962370;28;20047;-64
2023/07/18 11:19:40;;;;;;;6.35;1.35;;;23.20;1.00;;;;;;4960111;28;20053;-63
2023/07/18 11:22:18;;;;;;;3.60;1.15;;;23.20;1.00;;;;;;4954800;28;20492;-63
2023/07/18 11:24:45;;;;;;;5.90;0.90;;;23.00;1.00;;;;;;4954943;28;20070;-64
2023/07/18 11:27:24;;;;;;;4.43;1.35;;;22.80;1.00;;;;;;4955644;28;20062;-63
2023/07/18 11:29:57;;;;;;;;;;;22.60;1.00;;;;;;4978206;28;20077;-63
2023/07/18 11:32:42;;;;;;;6.28;1.23;;;22.30;1.00;;;;;;4990118;28;20380;-63
2023/07/18 11:35:21;;;;;;;6.57;1.08;;;22.00;1.00;;;;;;4979004;28;20054;-64
2023/07/18 11:37:51;;;;;;;2.70;1.30;;;21.90;1.00;;;;;;4941966;28;20497;-63
2023/07/18 11:40:23;;;;;;;6.32;1.40;;;21.80;1.00;;;;;;4971434;28;20965;-63
2023/07/18 11:42:55;;;;;;;5.35;1.42;;;21.70;1.00;;;;;;4977339;28;20055;-64
2023/07/18 11:45:22;;;;;;;2.90;1.15;;;21.70;1.00;;;;;;4978969;28;20101;-64
2023/07/18 11:47:53;;;;;;;3.22;0.90;;;21.60;7.60;;;;;;4990226;28;20508;-63
2023/07/18 11:50:20;;;;;;;4.65;1.20;;;21.70;12.70;;;;;;4989887;28;20513;-63
2023/07/18 11:52:47;;;;;;;3.17;1.02;;;21.80;7.50;;;;;;4973147;28;20060;-63
2023/07/18 11:55:18;;;;;;;5.40;1.20;;;21.80;5.50;;;;;;4989789;28;20047;-62
2023/07/18 11:57:44;;;;;;;1.98;0.88;;;21.70;3.00;;;;;;4990537;28;20045;-63
2023/07/18 12:00:13;;;;;;;2.38;0.80;;;21.70;5.60;;;;;;4989428;28;20039;-63
2023/07/18 12:02:39;;;;;;;1.75;0.90;;;21.60;1.00;;;;;;4972199;28;20093;-63
2023/07/18 12:05:06;;;;;;;3.65;0.70;;;21.50;2.40;;;;;;4989461;28;20034;-63
2023/07/18 12:07:33;;;;;;;3.05;0.77;;;21.60;5.20;;;;;;4990108;28;20046;-63
2023/07/18 12:09:59;;;;;;;1.63;0.80;;;21.70;6.50;;;;;;4953244;28;20054;-63
2023/07/18 12:12:25;;;;;;;2.97;0.90;;;21.80;1.80;;;;;;4968529;28;20042;-63
2023/07/18 12:14:51;;;;;;;6.82;1.10;;;21.80;7.30;;;;;;4973279;28;20054;-63
2023/07/18 12:17:17;;;;;;;3.90;0.88;;;21.90;1.00;;;;;;4972370;28;20501;-63
2023/07/18 12:19:44;;;;;;;2.03;0.80;;;21.90;1.00;;;;;;4990432;28;20116;-64
2023/07/18 12:22:11;;;;;;;4.63;0.88;;;21.80;1.00;;;;;;4972662;28;20062;-63
2023/07/18 12:24:37;;;;;;;3.65;0.80;;;21.70;1.00;;;;;;4965251;28;20054;-63
2023/07/18 12:27:04;;;;;;;0.80;0.55;;;21.70;1.00;;;;;;4953027;28;20562;-63
2023/07/18 12:29:30;;;;;;;3.20;0.88;;;21.50;1.00;;;;;;4970412;28;20528;-63
2023/07/18 12:31:56;;;;;;;2.55;0.65;;;21.20;1.00;;;;;;4962209;28;20513;-63
2023/07/18 12:34:22;;;;;;;2.20;0.60;;;20.80;1.00;;;;;;4970049;28;20070;-63
2023/07/18 12:36:48;;;;;;;1.35;0.70;;;20.60;1.00;;;;;;4953422;28;20050;-63
2023/07/18 12:39:15;;;;;;;2.05;0.75;;;20.20;1.00;;;;;;4970370;28;20082;-63
2023/07/18 12:41:42;;;;;;;1.23;0.50;;;20.00;1.00;;;;;;4969781;28;20057;-63
2023/07/18 12:44:08;;;;;;;2.63;0.73;;;19.80;1.00;;;;;;4969417;28;20544;-63
2023/07/18 12:46:34;;;;;;;3.72;0.90;;;19.50;5.90;;;;;;4952573;28;20051;-63
2023/07/18 12:49:00;;;;;;;0.77;0.73;;;19.40;19.40;;;;;;4970152;28;20401;-63